Time;durP1;ratioP1;P1;durP2;ratioP2;P2;SDS_P1;SDS_P2;PMS_P1;PMS_P2;Temp;Humidity;BMP_temperature;BMP_pressure;BME280_temperature;BME280_humidity;BME280_pressure;Samples;Min_cycle;Max_cycle;Signal;HPM_P1;HPM_P2
2023/10/19 00:01:58;;;;;;;21.10;16.20;;;;;;;17.26;100.00;94699.81;5002572;28;20048;-86
2023/10/19 00:04:25;;;;;;;19.23;14.50;;;;;;;17.30;100.00;94691.13;5000873;28;20022;-86
2023/10/19 00:06:53;;;;;;;17.90;14.00;;;;;;;17.40;100.00;94678.03;4975950;28;20034;-86
2023/10/19 00:09:19;;;;;;;19.87;14.07;;;;;;;17.45;100.00;94690.59;4999013;28;20042;-86
2023/10/19 00:11:50;;;;;;;16.37;13.53;;;;;;;17.16;100.00;94695.13;4999529;28;20062;-86
2023/10/19 00:14:17;;;;;;;18.80;14.83;;;;;;;17.03;100.00;94688.22;5003255;28;20653;-85
2023/10/19 00:17:05;;;;;;;18.50;13.53;;;;;;;16.82;100.00;94680.94;4993460;28;20125;-86
2023/10/19 00:19:39;;;;;;;20.37;15.03;;;;;;;17.30;100.00;94683.16;5008740;28;20037;-87
2023/10/19 00:22:16;;;;;;;18.63;13.90;;;;;;;17.80;100.00;94689.59;5007812;28;20040;-85
2023/10/19 00:24:44;;;;;;;19.37;16.03;;;;;;;17.12;100.00;94686.81;5002393;28;20113;-86
2023/10/19 00:27:17;;;;;;;17.47;14.77;;;;;;;17.15;100.00;94686.34;4993439;28;20031;-86
2023/10/19 00:29:49;;;;;;;21.02;15.73;;;;;;;16.95;100.00;94680.66;4979199;28;20034;-86
2023/10/19 00:32:17;;;;;;;18.83;15.13;;;;;;;17.17;100.00;94676.28;4983159;28;20038;-86
2023/10/19 00:34:50;;;;;;;21.77;15.93;;;;;;;16.97;100.00;94673.28;4983594;28;20034;-86
2023/10/19 00:37:19;;;;;;;19.02;15.52;;;;;;;16.36;100.00;94667.50;4990845;28;20104;-86
2023/10/19 00:40:14;;;;;;;22.57;15.97;;;;;;;16.82;100.00;94670.31;4992034;28;20057;-86
2023/10/19 00:42:45;;;;;;;23.23;15.83;;;;;;;17.30;100.00;94661.09;4990717;28;20027;-86
2023/10/19 00:45:13;;;;;;;17.80;14.60;;;;;;;17.64;100.00;94659.28;4996877;28;20105;-86
2023/10/19 00:47:42;;;;;;;21.53;16.10;;;;;;;17.12;100.00;94654.13;5003359;28;20125;-86
2023/10/19 00:50:27;;;;;;;20.40;15.27;;;;;;;17.57;100.00;94647.97;5004723;28;20022;-86
2023/10/19 00:52:52;;;;;;;19.47;14.67;;;;;;;17.03;100.00;94644.94;4977106;28;20027;-86
2023/10/19 00:55:21;;;;;;;18.37;14.80;;;;;;;18.04;100.00;94639.69;5015540;28;20089;-86
2023/10/19 00:57:49;;;;;;;17.70;14.13;;;;;;;18.41;100.00;94645.25;5020610;28;20080;-86
2023/10/19 01:00:22;;;;;;;17.63;14.53;;;;;;;18.56;100.00;94639.31;4999875;28;20027;-87
2023/10/19 01:02:59;;;;;;;17.67;14.37;;;;;;;18.64;100.00;94640.72;5016621;28;20030;-85
2023/10/19 01:05:32;;;;;;;17.83;14.77;;;;;;;18.60;100.00;94638.56;4996232;28;20029;-86
2023/10/19 01:07:57;;;;;;;17.27;14.33;;;;;;;18.64;100.00;94630.88;5028816;28;20022;-86
2023/10/19 01:10:23;;;;;;;18.97;14.73;;;;;;;18.47;100.00;94630.13;5003909;28;20077;-86
2023/10/19 01:12:52;;;;;;;19.00;14.10;;;;;;;18.65;100.00;94629.03;4996197;28;20128;-86
2023/10/19 01:15:29;;;;;;;19.10;14.70;;;;;;;18.73;100.00;94633.94;5004624;28;20037;-86
2023/10/19 01:17:57;;;;;;;21.00;13.97;;;;;;;18.78;100.00;94636.69;4990005;28;20018;-86
2023/10/19 01:20:55;;;;;;;18.43;14.03;;;;;;;18.89;100.00;94629.59;5002485;28;20088;-86
2023/10/19 01:23:21;;;;;;;17.77;14.13;;;;;;;18.75;100.00;94615.88;5000951;28;20029;-86
2023/10/19 01:28:28;;;;;;;19.27;14.07;;;;;;;18.34;100.00;94639.28;4992817;28;20026;-86
2023/10/19 01:30:54;;;;;;;18.83;13.95;;;;;;;18.21;100.00;94629.81;5004230;28;20112;-86
2023/10/19 01:33:21;;;;;;;16.87;13.27;;;;;;;18.47;100.00;94633.59;4995037;28;20030;-86
2023/10/19 01:38:31;;;;;;;16.77;12.73;;;;;;;18.03;100.00;94606.97;5004729;28;20058;-86
2023/10/19 01:41:01;;;;;;;17.43;14.03;;;;;;;18.18;100.00;94602.91;5001730;28;20539;-86
2023/10/19 01:43:32;;;;;;;18.73;14.60;;;;;;;18.17;100.00;94595.97;5010191;28;20445;-86
2023/10/19 01:46:04;;;;;;;18.07;14.63;;;;;;;18.40;100.00;94585.06;4994646;28;20108;-86
2023/10/19 01:48:33;;;;;;;16.90;13.47;;;;;;;18.11;100.00;94593.25;4996458;28;20062;-86
2023/10/19 01:51:04;;;;;;;16.40;13.33;;;;;;;17.90;100.00;94592.16;4983227;28;20022;-86
2023/10/19 01:53:29;;;;;;;24.30;13.73;;;;;;;18.03;100.00;94596.31;5004831;28;20170;-86
2023/10/19 01:55:58;;;;;;;21.13;14.10;;;;;;;18.07;100.00;94597.44;5001086;28;20022;-86
2023/10/19 01:58:27;;;;;;;16.80;12.77;;;;;;;17.65;100.00;94594.44;5001750;28;20026;-86
2023/10/19 02:03:43;;;;;;;15.83;13.37;;;;;;;17.89;100.00;94589.75;5017989;28;20072;-86
2023/10/19 02:09:21;;;;;;;18.23;13.77;;;;;;;18.07;100.00;94580.66;4992985;28;20101;-86
2023/10/19 02:12:07;;;;;;;16.37;12.67;;;;;;;17.43;100.00;94581.84;4993158;28;20037;-86
2023/10/19 02:14:33;;;;;;;16.17;13.30;;;;;;;18.19;100.00;94569.94;4993238;28;20470;-86
2023/10/19 02:17:02;;;;;;;17.10;13.00;;;;;;;18.36;100.00;94570.66;4997649;28;20029;-86
2023/10/19 02:19:29;;;;;;;15.80;12.37;;;;;;;18.85;100.00;94562.72;4998546;28;20026;-88
2023/10/19 02:22:04;;;;;;;17.20;13.33;;;;;;;19.00;100.00;94559.38;4993985;28;20398;-88
2023/10/19 02:24:30;;;;;;;17.93;13.87;;;;;;;18.66;100.00;94545.44;4980212;28;20026;-86
2023/10/19 02:26:57;;;;;;;16.00;13.80;;;;;;;17.97;100.00;94538.78;4992468;28;20057;-85
2023/10/19 02:29:23;;;;;;;19.90;14.60;;;;;;;17.38;100.00;94525.19;4987061;28;20478;-86
2023/10/19 02:31:49;;;;;;;17.87;14.53;;;;;;;17.84;100.00;94534.66;4979916;28;20030;-85
2023/10/19 02:34:18;;;;;;;20.00;14.83;;;;;;;17.68;100.00;94528.28;4976187;28;20486;-86
2023/10/19 02:36:45;;;;;;;16.93;14.10;;;;;;;18.23;100.00;94531.13;4993681;28;20029;-86
2023/10/19 02:39:13;;;;;;;18.73;14.50;;;;;;;18.28;100.00;94528.53;4997664;28;20033;-86
2023/10/19 02:41:54;;;;;;;17.37;13.80;;;;;;;17.90;100.00;94515.03;4992003;28;20026;-86
2023/10/19 02:44:22;;;;;;;21.27;16.00;;;;;;;17.70;100.00;94505.97;4999158;28;20033;-86
2023/10/19 02:46:53;;;;;;;19.33;15.43;;;;;;;17.43;100.00;94494.16;5004913;28;20084;-85
2023/10/19 02:49:39;;;;;;;19.23;15.57;;;;;;;17.88;100.00;94495.88;5000481;28;20477;-85
2023/10/19 02:52:04;;;;;;;19.37;15.93;;;;;;;17.94;100.00;94518.03;4996189;28;20032;-86
2023/10/19 02:54:34;;;;;;;17.90;14.13;;;;;;;17.91;100.00;94515.84;4998920;28;20034;-85
2023/10/19 02:57:00;;;;;;;20.63;15.33;;;;;;;17.80;100.00;94522.88;4984525;28;20026;-85
2023/10/19 02:59:31;;;;;;;18.37;14.10;;;;;;;18.17;100.00;94522.25;4989444;28;20036;-86
2023/10/19 03:04:37;;;;;;;20.50;15.73;;;;;;;18.88;100.00;94500.94;5017204;28;20107;-86
2023/10/19 03:07:06;;;;;;;19.00;14.23;;;;;;;18.43;100.00;94503.94;5007310;28;20025;-86
2023/10/19 03:09:37;;;;;;;18.20;15.53;;;;;;;18.07;100.00;94512.31;5008043;28;20034;-86
2023/10/19 03:12:13;;;;;;;20.10;14.70;;;;;;;17.66;100.00;94506.44;4996877;28;20022;-86
2023/10/19 03:14:41;;;;;;;19.13;15.10;;;;;;;17.81;100.00;94502.44;5011145;28;20065;-86
2023/10/19 03:17:08;;;;;;;20.97;15.97;;;;;;;17.83;100.00;94497.66;4982656;28;20034;-86
2023/10/19 03:19:56;;;;;;;17.83;15.57;;;;;;;17.71;100.00;94491.63;5006479;28;20045;-86
2023/10/19 03:22:22;;;;;;;20.03;16.07;;;;;;;18.24;100.00;94490.97;4980245;28;20026;-86
2023/10/19 03:24:51;;;;;;;18.87;15.50;;;;;;;18.07;100.00;94496.34;4996585;28;20034;-85
2023/10/19 03:27:24;;;;;;;;;;;;;;;18.07;100.00;94496.34;5000102;28;20026;-86
2023/10/19 03:29:54;;;;;;;17.57;14.87;;;;;;;17.48;100.00;94493.44;5002014;28;20077;-86
2023/10/19 03:32:32;;;;;;;18.70;14.40;;;;;;;17.50;100.00;94496.66;5001233;28;20029;-86
2023/10/19 03:35:01;;;;;;;20.67;14.43;;;;;;;17.68;100.00;94487.59;4993326;28;20117;-85
2023/10/19 03:37:30;;;;;;;19.77;15.57;;;;;;;16.88;100.00;94488.81;4999193;28;20026;-85
2023/10/19 03:39:56;;;;;;;19.43;14.87;;;;;;;17.50;100.00;94480.69;4983410;28;20452;-85
2023/10/19 03:42:26;;;;;;;17.57;14.13;;;;;;;17.60;100.00;94482.69;5015858;28;20022;-88
2023/10/19 03:45:13;;;;;;;19.90;14.93;;;;;;;17.18;100.00;94481.34;4984783;28;20030;-88
2023/10/19 03:47:43;;;;;;;17.70;14.60;;;;;;;17.74;100.00;94468.03;5000304;28;20504;-86
2023/10/19 03:50:14;;;;;;;18.83;15.40;;;;;;;17.49;100.00;94475.66;5003518;28;20033;-89
2023/10/19 03:52:45;;;;;;;21.50;15.93;;;;;;;17.89;100.00;94467.41;4991141;28;20035;-89
2023/10/19 03:55:12;;;;;;;18.30;15.13;;;;;;;17.82;100.00;94466.81;4999314;28;20026;-90
2023/10/19 03:57:41;;;;;;;20.47;16.50;;;;;;;17.62;100.00;94470.78;5002759;28;20053;-87
2023/10/19 04:00:15;;;;;;;18.83;16.20;;;;;;;17.81;100.00;94465.19;4996188;28;20022;-89
2023/10/19 04:02:42;;;;;;;18.40;15.30;;;;;;;17.63;100.00;94461.75;5003721;28;20030;-89
2023/10/19 04:05:10;;;;;;;26.67;18.53;;;;;;;17.48;100.00;94461.56;4996956;28;20487;-87
2023/10/19 04:07:41;;;;;;;40.47;25.60;;;;;;;17.30;100.00;94469.78;5000131;28;20040;-86
2023/10/19 04:12:35;;;;;;;25.37;20.20;;;;;;;17.74;100.00;94454.72;5012609;28;20030;-87
2023/10/19 04:15:17;;;;;;;20.70;17.03;;;;;;;17.87;100.00;94449.06;4994129;28;20171;-85
2023/10/19 04:17:46;;;;;;;20.60;16.50;;;;;;;17.98;100.00;94452.63;4992170;28;20030;-84
2023/10/19 04:22:42;;;;;;;19.27;15.97;;;;;;;17.73;100.00;94442.47;5004859;28;20139;-86
2023/10/19 04:25:08;;;;;;;19.60;15.83;;;;;;;17.47;100.00;94438.69;4999812;28;20025;-86
2023/10/19 04:27:37;;;;;;;19.30;15.67;;;;;;;17.44;100.00;94431.22;4994565;28;20030;-86
2023/10/19 04:30:03;;;;;;;19.97;15.17;;;;;;;17.19;100.00;94429.81;4994700;28;20503;-86
2023/10/19 04:32:50;;;;;;;19.03;15.13;;;;;;;16.96;100.00;94430.00;5004777;28;20034;-88
2023/10/19 04:35:23;;;;;;;18.03;15.50;;;;;;;17.32;100.00;94433.16;4998561;28;20039;-87
2023/10/19 04:37:50;;;;;;;21.27;15.15;;;;;;;16.95;100.00;94431.06;5007148;28;20030;-87
2023/10/19 04:40:16;;;;;;;18.03;14.97;;;;;;;16.92;100.00;94436.84;4982066;28;20034;-88
2023/10/19 04:42:42;;;;;;;17.27;15.37;;;;;;;17.32;100.00;94420.69;4994510;28;20539;-86
2023/10/19 04:45:08;;;;;;;18.50;14.73;;;;;;;17.40;100.00;94422.09;4972498;28;20026;-87
2023/10/19 04:47:35;;;;;;;18.73;15.47;;;;;;;16.96;100.00;94420.19;5000159;28;20026;-85
2023/10/19 04:50:02;;;;;;;20.03;15.57;;;;;;;17.00;100.00;94417.03;5009901;28;20022;-86
2023/10/19 04:52:32;;;;;;;22.20;15.67;;;;;;;16.81;100.00;94419.97;4992789;28;20021;-86
2023/10/19 04:54:59;;;;;;;23.30;19.07;;;;;;;16.80;100.00;94420.19;5000826;28;20038;-86
2023/10/19 04:57:25;;;;;;;23.00;16.90;;;;;;;16.92;100.00;94413.75;4992309;28;20058;-86
2023/10/19 04:59:51;;;;;;;20.43;16.47;;;;;;;17.02;100.00;94413.09;4994777;28;20551;-86
2023/10/19 05:02:17;;;;;;;21.47;17.07;;;;;;;16.67;100.00;94416.00;4998072;28;20089;-86
2023/10/19 05:04:43;;;;;;;21.80;16.97;;;;;;;16.63;100.00;94410.38;5002906;28;20022;-86
2023/10/19 05:07:12;;;;;;;22.17;17.93;;;;;;;16.63;100.00;94405.06;4980467;28;20030;-86
2023/10/19 05:09:40;;;;;;;20.50;16.47;;;;;;;16.84;100.00;94402.75;5013581;28;20072;-85
2023/10/19 05:12:09;;;;;;;19.80;17.17;;;;;;;17.04;100.00;94403.03;4997158;28;20489;-86
2023/10/19 05:14:38;;;;;;;19.20;16.40;;;;;;;16.92;100.00;94399.66;5010999;28;20034;-86
2023/10/19 05:17:04;;;;;;;21.20;17.00;;;;;;;16.69;100.00;94401.41;5001275;28;20111;-86
2023/10/19 05:19:33;;;;;;;25.70;17.17;;;;;;;16.26;100.00;94404.69;5008467;28;20034;-86
2023/10/19 05:22:12;;;;;;;22.50;17.70;;;;;;;16.16;100.00;94407.16;4991187;28;20030;-85
2023/10/19 05:24:37;;;;;;;20.70;17.27;;;;;;;16.51;100.00;94406.97;4995087;28;20023;-86
2023/10/19 05:27:03;;;;;;;21.50;17.03;;;;;;;16.60;100.00;94410.03;5015265;28;20036;-87
2023/10/19 05:29:33;;;;;;;22.43;17.27;;;;;;;16.55;100.00;94410.75;4977884;28;20335;-85
2023/10/19 05:31:58;;;;;;;19.17;15.47;;;;;;;16.58;100.00;94410.28;4997449;28;20068;-88
2023/10/19 05:34:29;;;;;;;19.07;16.67;;;;;;;16.68;100.00;94406.97;5005070;28;20022;-87
2023/10/19 05:36:58;;;;;;;19.77;16.37;;;;;;;16.67;100.00;94408.84;4996337;28;20026;-88
2023/10/19 05:39:27;;;;;;;19.80;16.23;;;;;;;16.92;100.00;94397.03;4996001;28;20033;-87
2023/10/19 05:41:54;;;;;;;20.30;17.00;;;;;;;16.55;100.00;94402.78;4977534;28;20030;-87
2023/10/19 05:44:19;;;;;;;21.63;17.73;;;;;;;16.82;100.00;94402.19;4983372;28;20018;-89
2023/10/19 05:46:51;;;;;;;24.60;19.47;;;;;;;16.66;100.00;94407.22;5001925;28;20040;-89
2023/10/19 05:49:17;;;;;;;22.73;18.03;;;;;;;16.69;100.00;94413.91;5002961;28;20034;-86
2023/10/19 05:51:44;;;;;;;21.43;17.47;;;;;;;15.95;100.00;94421.91;4997099;28;20041;-87
2023/10/19 05:54:10;;;;;;;19.60;17.00;;;;;;;16.35;100.00;94421.03;5014794;28;20108;-87
2023/10/19 05:56:36;;;;;;;19.17;16.30;;;;;;;16.46;100.00;94418.31;5013148;28;20138;-87
2023/10/19 05:59:02;;;;;;;19.13;16.33;;;;;;;16.77;100.00;94420.66;5009652;28;20476;-88
2023/10/19 06:01:27;;;;;;;20.17;15.93;;;;;;;16.77;100.00;94423.31;4996658;28;20156;-87
2023/10/19 06:03:53;;;;;;;20.30;16.80;;;;;;;16.68;100.00;94418.41;4999795;28;20402;-87
2023/10/19 06:06:20;;;;;;;18.40;16.43;;;;;;;17.24;100.00;94417.66;5001862;28;20080;-87
2023/10/19 06:08:45;;;;;;;20.53;15.80;;;;;;;17.14;100.00;94421.78;5016909;28;20088;-87
2023/10/19 06:11:11;;;;;;;19.13;16.07;;;;;;;16.75;100.00;94423.56;5025727;28;20029;-86
2023/10/19 06:13:39;;;;;;;20.30;15.40;;;;;;;16.69;100.00;94421.84;5015869;28;20030;-87
2023/10/19 06:16:09;;;;;;;21.03;17.20;;;;;;;16.78;100.00;94420.44;5001694;28;20436;-87
2023/10/19 06:18:38;;;;;;;23.10;16.30;;;;;;;17.31;100.00;94429.72;5002043;28;20037;-86
2023/10/19 06:21:07;;;;;;;23.37;16.97;;;;;;;17.12;100.00;94434.50;5022198;28;20014;-87
2023/10/19 06:23:32;;;;;;;20.93;17.47;;;;;;;17.17;100.00;94439.88;5002985;28;20026;-87
2023/10/19 06:25:59;;;;;;;19.20;15.83;;;;;;;17.64;100.00;94444.75;4998713;28;20634;-87
2023/10/19 06:28:25;;;;;;;17.03;14.37;;;;;;;17.96;100.00;94438.78;4987165;28;20478;-87
2023/10/19 06:30:56;;;;;;;17.80;15.53;;;;;;;17.29;100.00;94436.31;5017694;28;20030;-87
2023/10/19 06:33:32;;;;;;;17.87;15.30;;;;;;;16.71;100.00;94436.50;4999135;28;20117;-87
2023/10/19 06:36:03;;;;;;;17.63;14.80;;;;;;;16.71;100.00;94433.03;4995817;28;20030;-87
2023/10/19 06:38:33;;;;;;;18.83;15.60;;;;;;;16.75;100.00;94430.75;4986565;28;20022;-87
2023/10/19 06:41:02;;;;;;;21.23;15.53;;;;;;;16.78;100.00;94436.38;5010059;28;20053;-86
2023/10/19 06:43:32;;;;;;;19.67;15.60;;;;;;;17.11;100.00;94429.44;5003398;28;20033;-86
2023/10/19 06:46:01;;;;;;;20.37;15.50;;;;;;;16.74;100.00;94424.59;5002919;28;20026;-87
2023/10/19 06:48:32;;;;;;;18.70;16.17;;;;;;;16.86;100.00;94425.34;5007603;28;20042;-86
2023/10/19 06:51:00;;;;;;;19.90;14.93;;;;;;;16.66;100.00;94423.13;4999874;28;20144;-86
2023/10/19 06:53:26;;;;;;;19.43;16.53;;;;;;;16.87;100.00;94423.50;4991553;28;20030;-86
2023/10/19 06:55:52;;;;;;;20.53;15.03;;;;;;;17.01;100.00;94416.81;5003988;28;20027;-87
2023/10/19 06:58:21;;;;;;;18.47;15.23;;;;;;;17.41;100.00;94411.25;5007184;28;20393;-87
2023/10/19 07:00:56;;;;;;;22.40;15.77;;;;;;;18.17;100.00;94404.41;5000390;28;20037;-87
2023/10/19 07:03:36;;;;;;;20.23;15.20;;;;;;;17.98;100.00;94407.44;4996733;28;20029;-87
2023/10/19 07:06:04;;;;;;;19.43;14.63;;;;;;;17.73;100.00;94415.88;4987888;28;20018;-88
2023/10/19 07:08:32;;;;;;;18.50;14.67;;;;;;;18.00;100.00;94421.25;5018823;28;20497;-89
2023/10/19 07:10:57;;;;;;;18.13;15.10;;;;;;;18.42;100.00;94411.84;4991370;28;20075;-86
2023/10/19 07:13:23;;;;;;;17.13;14.50;;;;;;;18.43;100.00;94408.91;4996530;28;20121;-86
2023/10/19 07:15:49;;;;;;;15.50;13.43;;;;;;;18.65;100.00;94402.72;5017249;28;20033;-87
2023/10/19 07:18:28;;;;;;;16.40;13.77;;;;;;;18.67;100.00;94400.59;4993610;28;20054;-86
2023/10/19 07:21:02;;;;;;;15.67;13.07;;;;;;;18.70;100.00;94408.88;5011210;28;20039;-87
2023/10/19 07:23:31;;;;;;;17.17;13.97;;;;;;;18.74;100.00;94420.66;5002222;28;20034;-87
2023/10/19 07:25:59;;;;;;;19.23;14.73;;;;;;;18.38;100.00;94416.88;5007103;28;20028;-86
2023/10/19 07:28:33;;;;;;;19.40;14.30;;;;;;;17.56;100.00;94418.59;5001327;28;20036;-89
2023/10/19 07:30:59;;;;;;;18.97;15.47;;;;;;;17.77;100.00;94405.56;5009248;28;20053;-88
2023/10/19 07:33:26;;;;;;;19.37;16.03;;;;;;;18.54;100.00;94412.47;4979037;28;20025;-88
2023/10/19 07:35:55;;;;;;;21.37;16.40;;;;;;;18.24;100.00;94405.00;4991828;28;20650;-87
2023/10/19 07:38:26;;;;;;;20.50;16.83;;;;;;;18.44;100.00;94415.03;5005538;28;20737;-87
2023/10/19 07:41:06;;;;;;;20.07;15.87;;;;;;;17.94;100.00;94408.16;5002232;28;20030;-87
2023/10/19 07:43:41;;;;;;;20.53;15.00;;;;;;;18.59;100.00;94410.66;4993496;28;20088;-87
2023/10/19 07:46:08;;;;;;;20.40;14.77;;;;;;;18.78;100.00;94411.13;4992643;28;20030;-87
2023/10/19 07:48:33;;;;;;;18.93;16.13;;;;;;;18.49;100.00;94415.91;4999301;28;20029;-87
2023/10/19 07:51:15;;;;;;;19.73;16.17;;;;;;;18.36;100.00;94425.09;4999078;28;20041;-88
2023/10/19 07:53:41;;;;;;;19.20;15.33;;;;;;;18.62;100.00;94428.00;4995625;28;20127;-87
2023/10/19 07:56:10;;;;;;;20.17;17.37;;;;;;;18.53;100.00;94424.19;5000098;28;20093;-86
2023/10/19 07:58:36;;;;;;;19.90;15.23;;;;;;;18.75;100.00;94426.81;4985486;28;20188;-87
2023/10/19 08:01:14;;;;;;;20.73;15.70;;;;;;;18.49;100.00;94410.56;5003659;28;20038;-86
2023/10/19 08:07:53;;;;;;;18.07;14.67;;;;;;;18.93;100.00;94422.94;5010293;28;20037;-87
2023/10/19 08:11:06;;;;;;;19.57;15.53;;;;;;;18.84;100.00;94407.41;5004847;28;20627;-87
2023/10/19 08:15:13;;;;;;;21.10;16.13;;;;;;;18.82;100.00;94403.41;5001691;28;20048;-87
2023/10/19 08:26:43;;;;;;;24.97;16.77;;;;;;;19.35;100.00;94388.28;4898633;29;20036;-86
2023/10/19 08:32:54;;;;;;;22.87;17.60;;;;;;;18.82;100.00;94385.56;4959025;28;20058;-86
2023/10/19 08:35:43;;;;;;;20.27;15.37;;;;;;;19.32;100.00;94386.16;4967714;28;20041;-86
2023/10/19 08:39:07;;;;;;;19.47;15.47;;;;;;;19.16;100.00;94373.78;4974615;28;20394;-87
2023/10/19 08:41:37;;;;;;;20.43;15.70;;;;;;;18.91;100.00;94383.22;5000706;28;20030;-87
2023/10/19 08:44:10;;;;;;;19.17;15.80;;;;;;;18.80;100.00;94385.00;5004259;28;20538;-86
2023/10/19 08:46:43;;;;;;;21.83;16.77;;;;;;;18.72;100.00;94392.69;5009149;28;20812;-87
2023/10/19 08:49:15;;;;;;;23.02;16.17;;;;;;;19.35;100.00;94390.97;5007200;28;20489;-87
2023/10/19 08:51:44;;;;;;;19.63;14.87;;;;;;;19.59;100.00;94388.66;5007184;28;20049;-86
2023/10/19 08:54:12;;;;;;;19.47;14.77;;;;;;;19.70;100.00;94392.19;5001556;28;20030;-86
2023/10/19 08:56:38;;;;;;;18.93;14.90;;;;;;;19.94;100.00;94393.34;4980782;28;20034;-87
2023/10/19 08:59:06;;;;;;;18.73;14.77;;;;;;;20.38;100.00;94398.22;4989638;28;20089;-86
2023/10/19 09:01:35;;;;;;;23.80;16.37;;;;;;;20.04;100.00;94389.91;4997389;28;20033;-85
2023/10/19 09:04:14;;;;;;;23.40;18.50;;;;;;;19.96;100.00;94385.88;5011082;28;20061;-88
2023/10/19 09:06:43;;;;;;;21.57;17.37;;;;;;;20.13;100.00;94385.66;5013454;28;20026;-86
2023/10/19 09:09:19;;;;;;;20.13;17.07;;;;;;;20.26;100.00;94387.03;5009796;28;20038;-85
2023/10/19 09:11:54;;;;;;;22.47;19.03;;;;;;;19.64;100.00;94390.56;5015950;28;20034;-87
2023/10/19 09:14:41;;;;;;;23.00;19.23;;;;;;;19.62;100.00;94398.03;5025951;28;20030;-87
2023/10/19 09:17:10;;;;;;;20.70;18.27;;;;;;;19.37;100.00;94380.81;5010108;28;20561;-86
2023/10/19 09:19:59;;;;;;;22.10;18.57;;;;;;;19.41;100.00;94384.56;5012893;28;20060;-87
2023/10/19 09:22:52;;;;;;;20.77;17.63;;;;;;;19.42;100.00;94374.72;5009732;28;20050;-88
2023/10/19 09:25:30;;;;;;;36.77;30.60;;;;;;;19.85;100.00;94370.09;4995730;28;20050;-88
2023/10/19 09:27:56;;;;;;;20.77;17.07;;;;;;;20.31;100.00;94367.53;4998049;28;20413;-87
2023/10/19 09:30:25;;;;;;;30.03;23.37;;;;;;;20.34;100.00;94364.34;5009780;28;20111;-88
2023/10/19 09:32:53;;;;;;;19.90;16.80;;;;;;;20.58;100.00;94361.97;5021764;28;20065;-88
2023/10/19 09:35:27;;;;;;;22.27;18.03;;;;;;;20.81;100.00;94358.75;4999471;28;20065;-87
2023/10/19 09:37:56;;;;;;;21.53;16.57;;;;;;;21.09;100.00;94356.56;5002243;28;20037;-87
2023/10/19 09:40:23;;;;;;;20.33;17.93;;;;;;;20.81;100.00;94345.38;5012092;28;20013;-88
2023/10/19 09:42:53;;;;;;;21.30;16.47;;;;;;;21.33;100.00;94352.22;5026332;28;20037;-87
2023/10/19 09:45:20;;;;;;;19.73;15.83;;;;;;;21.17;100.00;94350.66;5012949;28;20022;-88
2023/10/19 09:47:50;;;;;;;22.83;16.43;;;;;;;21.77;100.00;94350.75;5006258;28;20409;-88
2023/10/19 09:50:16;;;;;;;18.53;14.90;;;;;;;22.30;100.00;94346.44;5024262;28;20027;-88
2023/10/19 09:52:43;;;;;;;17.02;15.20;;;;;;;22.35;100.00;94345.59;5011030;28;20032;-87
2023/10/19 09:55:34;;;;;;;17.38;14.55;;;;;;;22.51;100.00;94344.41;5014459;28;20018;-88
2023/10/19 09:58:09;;;;;;;14.88;13.10;;;;;;;22.69;100.00;94342.91;4998311;28;20026;-88
2023/10/19 10:00:35;;;;;;;17.17;12.52;;;;;;;22.56;100.00;94344.34;5027959;28;20052;-87
2023/10/19 10:03:05;;;;;;;15.35;11.73;;;;;;;22.55;100.00;94345.44;5000975;28;20026;-88
2023/10/19 10:05:43;;;;;;;17.08;12.00;;;;;;;22.77;100.00;94341.50;5015273;28;20049;-87
2023/10/19 10:08:17;;;;;;;14.52;11.45;;;;;;;24.05;100.00;94327.50;4988065;28;20065;-87
2023/10/19 10:10:53;;;;;;;14.18;11.85;;;;;;;23.95;100.00;94333.81;5010798;28;20113;-90
2023/10/19 10:13:29;;;;;;;14.50;10.55;;;;;;;24.31;100.00;94333.28;5016844;28;20026;-87
2023/10/19 10:16:08;;;;;;;14.75;11.68;;;;;;;23.57;100.00;94338.28;4993666;28;20039;-88
2023/10/19 10:18:37;;;;;;;17.67;14.30;;;;;;;24.04;100.00;94330.44;4988911;28;20037;-88
2023/10/19 10:21:23;;;;;;;19.90;13.70;;;;;;;24.13;100.00;94318.78;4966580;28;20041;-89
2023/10/19 10:23:55;;;;;;;18.85;11.57;;;;;;;24.19;100.00;94322.97;4988842;28;20034;-88
2023/10/19 10:26:24;;;;;;;13.57;10.25;;;;;;;23.79;100.00;94320.88;4998415;28;20030;-88
2023/10/19 10:29:09;;;;;;;14.88;10.27;;;;;;;23.55;100.00;94326.25;4997851;28;20037;-88
2023/10/19 10:31:41;;;;;;;13.45;8.90;;;;;;;23.90;100.00;94319.63;5010698;28;20047;-88
2023/10/19 10:34:09;;;;;;;13.38;9.07;;;;;;;23.91;100.00;94322.06;4985087;28;20042;-88
2023/10/19 10:36:57;;;;;;;12.38;8.70;;;;;;;24.26;100.00;94316.44;5006032;28;20026;-88
2023/10/19 10:39:40;;;;;;;12.07;9.75;;;;;;;24.04;100.00;94309.75;5020024;28;20072;-88
2023/10/19 10:42:09;;;;;;;10.55;8.52;;;;;;;23.24;100.00;94313.19;5005136;28;20113;-88
2023/10/19 10:45:02;;;;;;;12.48;9.23;;;;;;;23.65;100.00;94310.81;5018186;28;20026;-87
2023/10/19 10:47:33;;;;;;;8.23;6.68;;;;;;;22.88;100.00;94310.06;5013485;28;20030;-87
2023/10/19 10:50:03;;;;;;;11.13;7.88;;;;;;;22.78;100.00;94306.41;5014035;28;20026;-87
2023/10/19 10:52:34;;;;;;;10.40;8.27;;;;;;;22.66;100.00;94305.16;5005267;28;20112;-90
2023/10/19 10:55:12;;;;;;;11.32;8.90;;;;;;;22.55;100.00;94296.44;4997998;28;20114;-87
2023/10/19 10:57:45;;;;;;;14.48;10.32;;;;;;;22.49;100.00;94298.34;5005278;28;20473;-87
2023/10/19 11:00:20;;;;;;;11.43;8.65;;;;;;;22.66;100.00;94297.94;4979379;28;20612;-89
2023/10/19 11:02:47;;;;;;;12.95;9.52;;;;;;;22.23;100.00;94297.78;4990601;28;20038;-89
2023/10/19 11:05:14;;;;;;;12.30;9.93;;;;;;;22.32;100.00;94295.28;4997748;28;20022;-89
2023/10/19 11:08:02;;;;;;;13.73;9.80;;;;;;;22.61;100.00;94297.97;4993915;28;20023;-88
2023/10/19 11:10:29;;;;;;;15.00;9.82;;;;;;;22.97;100.00;94297.66;4997513;28;20045;-88
2023/10/19 11:13:06;;;;;;;13.50;11.15;;;;;;;22.11;100.00;94295.41;4997496;28;20022;-88
2023/10/19 11:15:36;;;;;;;13.93;11.30;;;;;;;22.43;100.00;94288.75;4977976;28;20052;-88
2023/10/19 11:18:03;;;;;;;15.00;10.45;;;;;;;22.25;100.00;94292.91;5010066;28;20041;-89
2023/10/19 11:20:29;;;;;;;15.15;12.02;;;;;;;21.60;100.00;94297.59;4994196;28;20026;-90
2023/10/19 11:22:57;;;;;;;14.80;11.95;;;;;;;22.13;100.00;94290.56;4980362;28;20029;-89
2023/10/19 11:25:29;;;;;;;17.45;12.68;;;;;;;22.26;100.00;94288.34;4989831;28;20037;-89
2023/10/19 11:27:58;;;;;;;17.13;12.80;;;;;;;22.05;100.00;94283.13;4992928;28;20165;-88
2023/10/19 11:30:31;;;;;;;15.63;11.55;;;;;;;22.54;100.00;94284.13;4977726;28;20108;-88
2023/10/19 11:32:59;;;;;;;15.15;12.88;;;;;;;22.61;100.00;94281.91;4993374;28;20044;-88
2023/10/19 11:35:30;;;;;;;19.08;12.45;;;;;;;22.09;100.00;94284.16;4988327;28;20036;-88
2023/10/19 11:38:00;;;;;;;15.55;12.55;;;;;;;22.24;100.00;94291.31;4996600;28;20037;-89
2023/10/19 11:40:26;;;;;;;15.27;12.63;;;;;;;22.54;100.00;94289.47;5019180;28;20033;-89
2023/10/19 11:42:56;;;;;;;16.92;12.70;;;;;;;22.45;100.00;94291.94;5011167;28;20034;-88
2023/10/19 11:45:23;;;;;;;15.30;12.27;;;;;;;22.72;100.00;94286.09;5010647;28;20022;-89
2023/10/19 11:47:54;;;;;;;15.40;13.00;;;;;;;22.77;100.00;94288.72;5001882;28;20028;-88
2023/10/19 11:50:19;;;;;;;17.15;12.63;;;;;;;22.11;100.00;94287.38;4985872;28;20109;-90
2023/10/19 11:52:46;;;;;;;15.50;12.63;;;;;;;22.64;100.00;94292.06;4998929;28;20378;-90
2023/10/19 11:55:13;;;;;;;16.77;13.68;;;;;;;22.99;100.00;94296.28;4995641;28;20027;-90
2023/10/19 11:57:40;;;;;;;16.23;13.15;;;;;;;22.82;100.00;94285.97;4980074;28;20019;-89
2023/10/19 12:00:21;;;;;;;16.08;14.02;;;;;;;22.30;100.00;94292.06;4998460;28;20030;-89
2023/10/19 12:03:12;;;;;;;19.50;15.50;;;;;;;22.65;100.00;94287.50;4993624;28;21313;-90
2023/10/19 12:05:42;;;;;;;18.92;15.00;;;;;;;22.93;100.00;94297.41;5001853;28;20616;-90